Zieglersville, Pennsylvania
Current Conditions -  °F | °C
As of 5:54 AM on Friday 24 Oct 2014 (Local Time) from KPTW Reporting Station
Overcast Overcast  
Wind Chill: 55°   Ceiling: 3100
Heat Index: 55°   Visibility: 10mi
Dew Point: 44°   Wind: 13mph
Humidity: 67%   Direction: 340°NNW
Pressure: 29.86"   Gusts: 18mph
Location:  40.2761°N, 75.4823°W
Report Text: KPTW 240954Z AUTO 34011G16KT 10SM OVC031 13/07 A2986 RMK AO2 SLP111 T01280067
Loading
Personal Weather Stations






























Interactive Weather Map
Tropical Storm Tracking
New forecast layout! Learn more

10-Day Weather Forecast

Advertisements
Track Severe Weather on mobile